createdAt,value
2018-02-20T00:01:40.513Z,40.90
2018-02-20T00:04:07.250Z,39.60
2018-02-20T00:06:33.992Z,39.73
2018-02-20T00:09:00.711Z,42.53
2018-02-20T00:11:27.462Z,38.60
2018-02-20T00:13:54.440Z,41.93
2018-02-20T00:16:21.365Z,46.50
2018-02-20T00:18:48.444Z,42.63
2018-02-20T00:21:15.350Z,41.23
2018-02-20T00:23:42.084Z,41.27
2018-02-20T00:26:08.872Z,39.77
2018-02-20T00:28:35.765Z,41.80
2018-02-20T00:31:02.546Z,41.17
2018-02-20T00:33:29.281Z,43.97
2018-02-20T00:35:56.606Z,46.20
2018-02-20T00:38:23.315Z,43.50
2018-02-20T00:40:50.049Z,35.17
2018-02-20T00:43:17.468Z,43.70
2018-02-20T00:45:44.992Z,41.40
2018-02-20T00:48:11.736Z,40.40
2018-02-20T00:50:38.426Z,38.80
2018-02-20T00:55:37.868Z,41.67
2018-02-20T00:58:04.639Z,44.30
2018-02-20T01:00:31.952Z,39.43
2018-02-20T01:02:58.865Z,39.20
2018-02-20T01:05:25.570Z,39.03
2018-02-20T01:07:52.324Z,40.57
2018-02-20T01:10:19.032Z,41.33
2018-02-20T01:12:45.878Z,39.63
2018-02-20T01:15:12.795Z,41.53
2018-02-20T01:17:39.595Z,40.80
2018-02-20T01:20:06.354Z,38.17
2018-02-20T01:22:37.163Z,40.30
2018-02-20T01:25:07.366Z,37.27
2018-02-20T01:27:34.059Z,36.43
2018-02-20T01:30:00.868Z,42.43
2018-02-20T01:32:27.585Z,41.93
2018-02-20T01:34:54.280Z,41.00
2018-02-20T01:37:21.117Z,44.20
2018-02-20T01:39:47.949Z,35.53
2018-02-20T01:42:14.715Z,40.30
2018-02-20T01:44:41.415Z,38.03
2018-02-20T01:47:08.173Z,40.30
2018-02-20T01:49:34.971Z,39.00
2018-02-20T01:52:01.690Z,34.90
2018-02-20T01:54:28.461Z,37.97
2018-02-20T01:56:55.182Z,38.10
2018-02-20T01:59:21.896Z,33.57
2018-02-20T02:01:48.583Z,36.43
2018-02-20T02:04:15.289Z,35.47
2018-02-20T02:06:41.970Z,37.20
2018-02-20T02:09:08.706Z,38.30
2018-02-20T02:11:35.417Z,40.90
2018-02-20T02:14:02.111Z,39.00
2018-02-20T02:16:28.826Z,36.87
2018-02-20T02:18:55.528Z,37.27
2018-02-20T02:21:22.219Z,37.80
2018-02-20T02:23:48.931Z,34.97
2018-02-20T02:26:15.636Z,35.30
2018-02-20T02:28:42.871Z,36.47
2018-02-20T02:31:09.627Z,43.20
2018-02-20T02:33:36.485Z,38.03
2018-02-20T02:36:03.177Z,40.27
2018-02-20T02:38:29.931Z,36.00
2018-02-20T02:40:56.681Z,37.30
2018-02-20T02:43:23.405Z,37.73
2018-02-20T02:45:50.212Z,36.77
2018-02-20T02:48:16.919Z,34.17
2018-02-20T02:50:43.625Z,34.67
2018-02-20T02:53:10.340Z,33.83
2018-02-20T02:55:37.090Z,39.77
2018-02-20T02:58:03.807Z,37.27
2018-02-20T03:00:31.427Z,41.00
2018-02-20T03:02:58.763Z,41.13
2018-02-20T03:05:25.449Z,40.57
2018-02-20T03:07:52.135Z,35.83
2018-02-20T03:10:18.863Z,37.53
2018-02-20T03:12:45.604Z,40.97
2018-02-20T03:15:12.355Z,39.93
2018-02-20T03:17:39.058Z,35.53
2018-02-20T03:20:05.847Z,39.87
2018-02-20T03:22:32.549Z,39.03
2018-02-20T03:24:59.496Z,38.77
2018-02-20T03:27:26.317Z,35.50
2018-02-20T03:29:53.021Z,37.07
2018-02-20T03:32:19.739Z,35.23
2018-02-20T03:34:46.441Z,36.57
2018-02-20T03:37:13.141Z,38.10
2018-02-20T03:39:39.845Z,35.13
2018-02-20T03:42:06.541Z,36.70
2018-02-20T03:44:33.315Z,39.20
2018-02-20T03:47:00.138Z,39.00
2018-02-20T03:49:26.814Z,38.97
2018-02-20T03:51:53.560Z,37.20
2018-02-20T03:54:20.277Z,41.27
2018-02-20T03:56:46.968Z,41.17
2018-02-20T03:59:13.673Z,42.40
2018-02-20T04:01:44.159Z,40.53
2018-02-20T04:04:10.890Z,40.43
2018-02-20T04:06:37.613Z,38.43
2018-02-20T04:09:04.347Z,37.10
2018-02-20T04:11:31.099Z,34.27
2018-02-20T04:13:57.795Z,42.23
2018-02-20T04:16:24.574Z,40.60
2018-02-20T04:18:51.441Z,39.43
2018-02-20T04:21:18.165Z,37.10
2018-02-20T04:23:48.999Z,40.33
2018-02-20T04:26:15.762Z,36.10
2018-02-20T04:28:42.817Z,37.43
2018-02-20T04:31:09.528Z,41.30
2018-02-20T04:33:36.259Z,39.50
2018-02-20T04:36:03.256Z,39.27
2018-02-20T04:38:29.961Z,40.60
2018-02-20T04:40:57.582Z,47.43
2018-02-20T04:43:24.347Z,43.50
2018-02-20T04:45:51.150Z,43.97
2018-02-20T04:48:23.576Z,42.97
2018-02-20T04:50:50.327Z,40.30
2018-02-20T04:53:17.160Z,41.97
2018-02-20T04:55:43.874Z,44.67
2018-02-20T04:58:10.768Z,43.60
2018-02-20T05:00:41.218Z,39.13
2018-02-20T05:03:08.037Z,40.63
2018-02-20T05:05:34.937Z,43.13
2018-02-20T05:08:01.972Z,43.70
2018-02-20T05:10:28.753Z,40.00
2018-02-20T05:12:56.028Z,44.67
2018-02-20T05:15:25.700Z,43.90
2018-02-20T05:17:52.450Z,45.47
2018-02-20T05:20:19.185Z,42.57
2018-02-20T05:22:50.172Z,44.47
2018-02-20T05:25:16.868Z,40.50
2018-02-20T05:27:43.740Z,43.27
2018-02-20T05:30:10.552Z,40.33
2018-02-20T05:32:37.229Z,40.77
2018-02-20T05:37:44.537Z,38.37
2018-02-20T05:40:13.408Z,39.30
2018-02-20T05:45:28.912Z,49.83
2018-02-20T05:47:55.625Z,43.63
2018-02-20T05:50:24.828Z,48.47
2018-02-20T05:55:22.591Z,43.77
2018-02-20T05:57:49.332Z,46.10
2018-02-20T06:00:16.055Z,43.37
2018-02-20T06:02:42.789Z,40.23
2018-02-20T06:05:10.217Z,42.27
2018-02-20T06:07:37.128Z,42.33
2018-02-20T06:10:03.932Z,48.03
2018-02-20T06:12:30.821Z,45.07
2018-02-20T06:14:58.488Z,40.67
2018-02-20T06:17:29.841Z,41.00
2018-02-20T06:19:59.667Z,44.47
2018-02-20T06:22:28.786Z,47.13
2018-02-20T06:25:00.329Z,46.30
2018-02-20T06:27:30.944Z,45.83
2018-02-20T06:29:58.411Z,41.87
2018-02-20T06:35:02.523Z,40.80
2018-02-20T06:37:29.267Z,43.13
2018-02-20T06:40:01.704Z,42.57
2018-02-20T06:42:28.900Z,44.10
2018-02-20T06:44:55.801Z,46.87
2018-02-20T06:47:29.888Z,41.43
2018-02-20T06:50:00.073Z,47.10
2018-02-20T06:52:27.298Z,43.47
2018-02-20T06:57:31.686Z,40.40
2018-02-20T06:59:59.049Z,40.87
2018-02-20T07:02:28.399Z,50.13
2018-02-20T07:05:00.927Z,48.23
2018-02-20T07:07:28.412Z,43.00
2018-02-20T07:09:58.723Z,45.90
2018-02-20T07:12:28.485Z,50.67
2018-02-20T07:14:55.154Z,43.00
2018-02-20T07:17:21.962Z,42.00
2018-02-20T07:19:48.790Z,49.57
2018-02-20T07:22:15.571Z,41.50
2018-02-20T07:24:42.285Z,43.40
2018-02-20T07:27:09.006Z,42.97
2018-02-20T07:29:35.961Z,45.30
2018-02-20T07:32:02.697Z,41.80
2018-02-20T07:34:29.538Z,40.10
2018-02-20T07:36:56.491Z,41.63
2018-02-20T07:39:23.187Z,45.63
2018-02-20T07:41:50.006Z,46.77
2018-02-20T07:44:16.900Z,46.07
2018-02-20T07:46:44.016Z,44.20
2018-02-20T07:49:10.893Z,43.97
2018-02-20T07:51:37.894Z,46.20
2018-02-20T07:54:04.694Z,44.30
2018-02-20T07:56:31.801Z,42.70
2018-02-20T07:58:58.521Z,49.20
2018-02-20T08:01:25.305Z,40.57
2018-02-20T08:03:52.044Z,44.53
2018-02-20T08:06:18.754Z,45.13
2018-02-20T08:08:45.525Z,46.37
2018-02-20T08:11:12.336Z,42.70
2018-02-20T08:13:39.087Z,42.20
2018-02-20T08:16:05.937Z,42.37
2018-02-20T08:18:32.714Z,43.10
2018-02-20T08:20:59.426Z,43.87
2018-02-20T08:23:26.159Z,39.60
2018-02-20T08:25:52.894Z,44.70
2018-02-20T08:28:19.616Z,40.50
2018-02-20T08:30:46.387Z,43.57
2018-02-20T08:33:13.101Z,42.03
2018-02-20T08:35:39.879Z,37.83
2018-02-20T08:38:06.709Z,38.30
2018-02-20T08:40:33.435Z,40.10
2018-02-20T08:43:00.172Z,40.47
2018-02-20T08:45:26.935Z,40.60
2018-02-20T08:47:53.749Z,39.83
2018-02-20T08:50:20.445Z,46.83
2018-02-20T08:52:47.121Z,39.63
2018-02-20T08:55:14.758Z,40.47
2018-02-20T08:57:41.574Z,41.53
2018-02-20T09:00:08.502Z,42.43
2018-02-20T09:02:35.429Z,37.87
2018-02-20T09:05:02.129Z,41.20
2018-02-20T09:07:28.870Z,45.30
2018-02-20T09:09:55.588Z,45.10
2018-02-20T09:12:22.362Z,37.43
2018-02-20T09:14:49.084Z,44.23
2018-02-20T09:17:15.774Z,39.90
2018-02-20T09:19:42.687Z,44.93
2018-02-20T09:22:09.589Z,40.37
2018-02-20T09:24:36.277Z,37.20
2018-02-20T09:27:03.041Z,36.67
2018-02-20T09:29:30.084Z,40.50
2018-02-20T09:31:56.849Z,40.13
2018-02-20T09:34:23.596Z,36.40
2018-02-20T09:36:50.313Z,32.90
2018-02-20T09:39:17.004Z,33.37
2018-02-20T09:41:43.710Z,35.23
2018-02-20T09:44:10.410Z,33.03
2018-02-20T09:46:37.223Z,32.90
2018-02-20T09:49:03.922Z,30.97
2018-02-20T09:51:30.687Z,29.80
2018-02-20T09:53:57.410Z,30.83
2018-02-20T09:56:24.134Z,29.23
2018-02-20T09:58:50.906Z,33.67
2018-02-20T10:01:17.629Z,33.20
2018-02-20T10:03:44.401Z,30.93
2018-02-20T10:06:11.154Z,29.40
2018-02-20T10:08:37.866Z,32.50
2018-02-20T10:11:04.632Z,29.20
2018-02-20T10:13:31.333Z,28.67
2018-02-20T10:15:58.115Z,27.70
2018-02-20T10:18:24.874Z,26.63
2018-02-20T10:20:51.553Z,25.80
2018-02-20T10:23:18.301Z,26.90
2018-02-20T10:25:45.017Z,25.40
2018-02-20T10:28:11.784Z,26.70
2018-02-20T10:30:38.619Z,24.80
2018-02-20T10:33:05.336Z,26.03
2018-02-20T10:35:32.089Z,28.20
2018-02-20T10:37:58.791Z,23.50
2018-02-20T10:40:25.554Z,23.90
2018-02-20T10:42:52.301Z,24.23
2018-02-20T10:45:19.055Z,23.90
2018-02-20T10:47:45.765Z,26.30
2018-02-20T10:50:12.455Z,22.73
2018-02-20T10:52:39.298Z,28.00
2018-02-20T10:55:06.081Z,23.57
2018-02-20T10:57:32.899Z,29.53
2018-02-20T10:59:59.588Z,27.17
2018-02-20T11:02:26.375Z,25.27
2018-02-20T11:04:53.118Z,23.30
2018-02-20T11:07:19.863Z,22.40
2018-02-20T11:09:46.602Z,22.80
2018-02-20T11:12:13.455Z,19.77
2018-02-20T11:14:40.178Z,21.67
2018-02-20T11:17:06.895Z,19.43
2018-02-20T11:19:33.677Z,21.70
2018-02-20T11:22:00.388Z,22.20
2018-02-20T11:24:27.085Z,20.40
2018-02-20T11:26:53.785Z,22.23
2018-02-20T11:29:20.517Z,22.30
2018-02-20T11:31:47.237Z,23.53
2018-02-20T11:34:13.923Z,24.37
2018-02-20T11:36:40.641Z,23.40
2018-02-20T11:39:07.353Z,26.07
2018-02-20T11:41:34.059Z,19.87
2018-02-20T11:44:00.791Z,20.53
2018-02-20T11:46:27.522Z,23.83
2018-02-20T11:48:54.216Z,21.43
2018-02-20T11:51:20.985Z,22.37
2018-02-20T11:53:47.714Z,24.57
2018-02-20T11:56:14.457Z,25.63
2018-02-20T11:58:41.170Z,23.10
2018-02-20T12:01:07.879Z,26.47
2018-02-20T12:03:34.751Z,23.80
2018-02-20T12:06:01.612Z,26.80
2018-02-20T12:08:28.318Z,25.30
2018-02-20T12:10:55.449Z,24.60
2018-02-20T12:13:22.168Z,24.80
2018-02-20T12:15:48.889Z,23.50
2018-02-20T12:18:15.605Z,24.40
2018-02-20T12:20:42.402Z,23.80
2018-02-20T12:23:09.126Z,25.87
2018-02-20T12:25:35.860Z,24.33
2018-02-20T12:28:02.643Z,22.83
2018-02-20T12:30:29.352Z,26.53
2018-02-20T12:32:56.036Z,23.27
2018-02-20T12:35:22.997Z,25.07
2018-02-20T12:37:49.802Z,23.57
2018-02-20T12:40:16.594Z,23.60
2018-02-20T12:42:43.419Z,22.87
2018-02-20T12:45:10.132Z,23.20
2018-02-20T12:47:37.295Z,22.03
2018-02-20T12:50:04.044Z,27.63
2018-02-20T12:52:30.810Z,29.83
2018-02-20T12:54:57.511Z,24.27
2018-02-20T12:57:24.230Z,25.93
2018-02-20T12:59:50.924Z,27.77
2018-02-20T13:02:17.640Z,25.13
2018-02-20T13:04:44.357Z,24.20
2018-02-20T13:07:11.328Z,24.33
2018-02-20T13:09:38.075Z,26.07
2018-02-20T13:12:04.772Z,28.83
2018-02-20T13:14:31.573Z,26.40
2018-02-20T13:16:58.420Z,28.10
2018-02-20T13:19:25.606Z,25.53
2018-02-20T13:21:52.331Z,29.83
2018-02-20T13:24:19.112Z,26.30
2018-02-20T13:26:45.815Z,26.47
2018-02-20T13:29:12.505Z,23.33
2018-02-20T13:31:39.288Z,23.30
2018-02-20T13:34:05.960Z,24.13
2018-02-20T13:36:32.694Z,24.80
2018-02-20T13:38:59.431Z,26.77
2018-02-20T13:41:26.183Z,24.53
2018-02-20T13:43:52.890Z,24.37
2018-02-20T13:46:19.624Z,22.43
2018-02-20T13:48:46.940Z,20.70
2018-02-20T13:51:14.637Z,23.53
2018-02-20T13:53:41.647Z,24.57
2018-02-20T13:56:08.319Z,20.40
2018-02-20T13:58:34.998Z,27.40
2018-02-20T14:01:01.707Z,23.10
2018-02-20T14:03:28.401Z,24.80
2018-02-20T14:05:55.185Z,28.23
2018-02-20T14:08:22.066Z,25.50
2018-02-20T14:10:49.315Z,26.13
2018-02-20T14:13:16.570Z,25.07
2018-02-20T14:15:44.283Z,31.27
2018-02-20T14:18:11.009Z,23.90
2018-02-20T14:20:37.719Z,29.07
2018-02-20T14:23:04.459Z,29.13
2018-02-20T14:25:31.447Z,30.17
2018-02-20T14:27:58.127Z,29.00
2018-02-20T14:30:24.977Z,31.07
2018-02-20T14:32:51.663Z,33.77
2018-02-20T14:35:18.593Z,38.10
2018-02-20T14:37:45.266Z,25.83
2018-02-20T14:40:11.979Z,28.37
2018-02-20T14:42:38.700Z,30.77
2018-02-20T14:45:05.516Z,29.07
2018-02-20T14:47:32.276Z,32.70
2018-02-20T14:49:59.117Z,28.93
2018-02-20T14:52:25.879Z,30.47
2018-02-20T14:54:52.622Z,33.20
2018-02-20T14:57:19.354Z,33.07
2018-02-20T14:59:46.105Z,33.10
2018-02-20T15:02:12.783Z,34.10
2018-02-20T15:04:39.487Z,35.13
2018-02-20T15:07:06.196Z,38.00
2018-02-20T15:09:32.871Z,36.27
2018-02-20T15:11:59.809Z,35.33
2018-02-20T15:14:26.549Z,36.17
2018-02-20T15:16:53.350Z,34.73
2018-02-20T15:19:20.091Z,36.33
2018-02-20T15:21:46.816Z,33.60
2018-02-20T15:24:13.562Z,39.63
2018-02-20T15:26:40.360Z,36.10
2018-02-20T15:29:07.076Z,31.13
2018-02-20T15:31:34.716Z,38.33
2018-02-20T15:34:01.789Z,35.27
2018-02-20T15:36:28.726Z,36.67
2018-02-20T15:38:57.208Z,32.67
2018-02-20T15:41:24.018Z,37.23
2018-02-20T15:43:50.795Z,38.13
2018-02-20T15:46:17.533Z,33.33
2018-02-20T15:48:44.343Z,37.60
2018-02-20T15:51:11.784Z,34.83
2018-02-20T15:53:38.902Z,36.93
2018-02-20T15:56:05.620Z,34.90
2018-02-20T15:58:32.340Z,33.97
2018-02-20T16:00:59.057Z,35.20
2018-02-20T16:03:25.906Z,32.13
2018-02-20T16:05:52.599Z,36.10
2018-02-20T16:08:19.317Z,32.17
2018-02-20T16:10:46.173Z,31.73
2018-02-20T16:13:12.890Z,31.07
2018-02-20T16:15:40.517Z,30.67
2018-02-20T16:18:07.235Z,32.33
2018-02-20T16:20:34.003Z,31.97
2018-02-20T16:23:00.719Z,28.10
2018-02-20T16:25:27.484Z,33.50
2018-02-20T16:27:54.343Z,31.00
2018-02-20T16:30:21.035Z,30.97
2018-02-20T16:32:47.919Z,29.10
2018-02-20T16:35:15.527Z,30.60
2018-02-20T16:37:42.278Z,29.77
2018-02-20T16:40:09.063Z,31.00
2018-02-20T16:42:35.893Z,29.47
2018-02-20T16:45:02.625Z,29.43
2018-02-20T16:47:29.756Z,31.97
2018-02-20T16:49:56.606Z,32.87
2018-02-20T16:52:23.397Z,34.37
2018-02-20T16:54:50.322Z,40.73
2018-02-20T16:57:17.350Z,29.73
2018-02-20T16:59:44.255Z,32.23
2018-02-20T17:02:11.017Z,30.83
2018-02-20T17:04:37.739Z,25.97
2018-02-20T17:07:04.757Z,31.20
2018-02-20T17:09:31.490Z,39.73
2018-02-20T17:11:58.213Z,30.47
2018-02-20T17:14:24.981Z,27.93
2018-02-20T17:16:51.997Z,24.17
2018-02-20T17:19:19.345Z,27.53
2018-02-20T17:21:46.126Z,36.77
2018-02-20T17:24:12.898Z,32.10
2018-02-20T17:26:39.593Z,36.87
2018-02-20T17:29:06.330Z,32.30
2018-02-20T17:31:33.154Z,35.43
2018-02-20T17:33:59.890Z,31.13
2018-02-20T17:36:26.714Z,36.90
2018-02-20T17:38:53.401Z,30.13
2018-02-20T17:41:20.159Z,35.80
2018-02-20T17:43:47.022Z,34.40
2018-02-20T17:46:13.799Z,38.70
2018-02-20T17:48:40.621Z,36.97
2018-02-20T17:51:07.313Z,36.97
2018-02-20T17:53:34.026Z,37.93
2018-02-20T17:56:00.786Z,42.83
2018-02-20T17:58:29.430Z,35.93
2018-02-20T18:00:56.271Z,41.83
2018-02-20T18:03:23.002Z,37.60
2018-02-20T18:05:49.752Z,41.13
2018-02-20T18:08:16.552Z,40.50
2018-02-20T18:10:43.422Z,40.70
2018-02-20T18:13:10.153Z,42.70
2018-02-20T18:15:36.901Z,36.60
2018-02-20T18:18:03.872Z,38.13
2018-02-20T18:20:30.722Z,43.80
2018-02-20T18:22:57.513Z,41.90
2018-02-20T18:25:24.598Z,40.87
2018-02-20T18:27:51.346Z,39.80
2018-02-20T18:30:18.074Z,39.33
2018-02-20T18:32:45.094Z,36.10
2018-02-20T18:35:12.110Z,47.47
2018-02-20T18:37:38.992Z,34.83
2018-02-20T18:40:05.746Z,33.83
2018-02-20T18:42:32.551Z,37.90
2018-02-20T18:44:59.349Z,37.87
2018-02-20T18:47:26.079Z,42.13
2018-02-20T18:49:52.802Z,38.07
2018-02-20T18:52:19.626Z,41.00
2018-02-20T18:54:46.438Z,38.43
2018-02-20T18:57:13.156Z,35.30
2018-02-20T18:59:40.316Z,34.97
2018-02-20T19:02:08.718Z,43.43
2018-02-20T19:04:36.097Z,34.60
2018-02-20T19:07:02.928Z,37.33
2018-02-20T19:09:29.692Z,38.60
2018-02-20T19:11:56.410Z,40.30
2018-02-20T19:14:23.122Z,36.67
2018-02-20T19:16:50.319Z,39.73
2018-02-20T19:19:17.090Z,40.40
2018-02-20T19:21:43.836Z,34.20
2018-02-20T19:24:12.304Z,34.23
2018-02-20T19:26:39.202Z,34.63
2018-02-20T19:29:05.994Z,41.30
2018-02-20T19:31:32.686Z,38.23
2018-02-20T19:33:59.410Z,39.13
2018-02-20T19:36:26.219Z,41.17
2018-02-20T19:38:53.035Z,37.70
2018-02-20T19:41:19.891Z,42.80
2018-02-20T19:43:46.733Z,36.50
2018-02-20T19:46:13.506Z,40.17
2018-02-20T19:48:40.181Z,41.67
2018-02-20T19:51:07.095Z,43.13
2018-02-20T19:53:33.921Z,39.30
2018-02-20T19:56:01.024Z,41.00
2018-02-20T19:58:27.784Z,51.50
2018-02-20T20:00:56.353Z,40.83
2018-02-20T20:03:26.757Z,40.70
2018-02-20T20:05:56.682Z,39.30
2018-02-20T20:08:28.019Z,42.13
2018-02-20T20:10:55.997Z,38.47
2018-02-20T20:13:22.869Z,41.60
2018-02-20T20:15:50.226Z,42.20
2018-02-20T20:18:17.198Z,38.87
2018-02-20T20:20:48.057Z,43.40
2018-02-20T20:23:10.792Z,38.53
2018-02-20T20:25:37.592Z,42.90
2018-02-20T20:28:04.985Z,39.60
2018-02-20T20:30:31.735Z,38.60
2018-02-20T20:32:58.583Z,43.03
2018-02-20T20:35:25.510Z,43.37
2018-02-20T20:37:52.218Z,42.00
2018-02-20T20:40:18.991Z,47.23
2018-02-20T20:42:45.871Z,40.13
2018-02-20T20:45:12.696Z,43.93
2018-02-20T20:47:39.563Z,46.93
2018-02-20T20:50:06.443Z,47.10
2018-02-20T20:52:33.143Z,38.80
2018-02-20T20:55:00.055Z,43.67
2018-02-20T20:57:26.885Z,47.27
2018-02-20T20:59:53.592Z,47.07
2018-02-20T21:02:20.568Z,41.73
2018-02-20T21:04:47.530Z,44.83
2018-02-20T21:07:14.524Z,48.40
2018-02-20T21:09:41.278Z,46.00
2018-02-20T21:12:07.975Z,43.37
2018-02-20T21:14:34.706Z,42.90
2018-02-20T21:17:01.480Z,47.60
2018-02-20T21:19:28.477Z,46.37
2018-02-20T21:21:55.177Z,44.77
2018-02-20T21:24:22.391Z,42.07
2018-02-20T21:26:49.301Z,47.23
2018-02-20T21:29:16.265Z,43.57
2018-02-20T21:31:43.052Z,47.50
2018-02-20T21:34:09.846Z,48.10
2018-02-20T21:36:36.708Z,42.00
2018-02-20T21:39:03.437Z,44.17
2018-02-20T21:41:30.219Z,45.13
2018-02-20T21:43:56.998Z,47.00
2018-02-20T21:46:23.756Z,51.47
2018-02-20T21:48:50.620Z,48.50
2018-02-20T21:51:17.441Z,42.90
2018-02-20T21:53:44.296Z,46.60
2018-02-20T21:56:11.139Z,49.37
2018-02-20T21:58:38.001Z,45.07
2018-02-20T22:01:04.688Z,43.77
2018-02-20T22:03:31.560Z,50.53
2018-02-20T22:05:58.248Z,51.53
2018-02-20T22:08:24.977Z,47.80
2018-02-20T22:10:51.910Z,46.93
2018-02-20T22:13:18.672Z,51.60
2018-02-20T22:15:45.397Z,50.53
2018-02-20T22:18:12.081Z,47.43
2018-02-20T22:20:39.367Z,51.43
2018-02-20T22:23:06.152Z,45.43
2018-02-20T22:28:10.439Z,45.63
2018-02-20T22:30:40.982Z,48.77
2018-02-20T22:33:08.225Z,49.00
2018-02-20T22:35:35.010Z,47.30
2018-02-20T22:40:33.018Z,48.20
2018-02-20T22:42:59.750Z,52.17
2018-02-20T22:45:26.506Z,49.50
2018-02-20T22:47:53.269Z,50.43
2018-02-20T22:50:19.957Z,48.97
2018-02-20T22:52:46.696Z,50.93
2018-02-20T22:55:13.382Z,47.40
2018-02-20T22:57:42.332Z,50.10
2018-02-20T23:00:09.085Z,47.93
2018-02-20T23:02:35.817Z,48.60
2018-02-20T23:05:02.585Z,44.47
2018-02-20T23:07:29.294Z,41.93
2018-02-20T23:09:56.377Z,43.63
2018-02-20T23:12:23.359Z,44.30
2018-02-20T23:14:50.725Z,44.97
2018-02-20T23:17:17.614Z,44.60
2018-02-20T23:19:44.386Z,44.87
2018-02-20T23:22:11.190Z,48.03
2018-02-20T23:24:37.940Z,47.27
2018-02-20T23:27:04.642Z,44.03
2018-02-20T23:29:31.344Z,48.60
2018-02-20T23:31:58.139Z,42.50
2018-02-20T23:34:25.059Z,44.77
2018-02-20T23:36:51.883Z,43.00
2018-02-20T23:39:18.666Z,44.63
2018-02-20T23:41:45.446Z,49.00
2018-02-20T23:44:12.160Z,40.93
2018-02-20T23:46:38.895Z,42.73
2018-02-20T23:49:05.677Z,43.70
2018-02-20T23:51:34.350Z,45.70
2018-02-20T23:54:01.079Z,44.90
2018-02-20T23:56:27.922Z,44.90
2018-02-20T23:58:54.970Z,44.63
